Weather History for Newport, VT

Change the Weather History Date:

Tuesday, November 13, 2012

  Actual Average Record
Temperature  
Mean Temperature 46 °F -  
Max Temperature 64 °F 41 °F 64 °F (2012)
Min Temperature 29 °F 26 °F 8 °F (1941)
Degree Days  
Heating Degree Days 18    
Moisture  
Dew Point 31 °F    
Average Humidity 65    
Maximum Humidity 81    
Minimum Humidity 46    
Precipitation  
Precipitation 0.00 in - - ()
Sea Level Pressure  
Sea Level Pressure 30.26 in    
Wind  
Wind Speed 8 mph (West)    
Max Wind Speed 18 mph    
Max Gust Speed 24 mph    
Visibility 9 miles    
Events Rain    
Averages and records for this station are not official NWS values.
T = Trace of Precipitation, MM = Missing Value Source: NWS Daily Summary

Daily Weather History Graph

Daily Weather History Graph

Search for Another Location

Airport:

Trip Planner

Search our weather history database for the weather conditions in past years. The results will help you decide how hot, cold, wet, or windy it might be!

Date:

Astronomy

Nov. 13, 2012 Rise Set
Actual Time 6:44 AM EST 4:21 PM EST
Civil Twilight 6:12 AM EST 4:53 PM EST
Nautical Twilight 5:37 AM EST 5:28 PM EST
Astronomical Twilight 5:02 AM EST 6:03 PM EST
Moon 6:19 AM EST (11/13) 4:11 PM EST (11/13)
Length of Visible Light 10h 40m
Length of Day
9h 37m
Waning Crescent, 0% of the Moon is Illuminated
Nov 13
Waning Crescent
Nov 13
New
Nov 20
First Quarter
Nov 28
Full
Dec 6
Last Quarter

Hourly Weather History & Observations

Time (EST) Temp. Windchill Dew Point Humidity Pressure Visibility Wind Dir Wind Speed Gust Speed Precip Events Conditions
12:15 AM 63.0 °F - 45.3 °F 53% 30.03 in 10.0 mi South 13.8 mph 23.0 mph N/A   Overcast
12:35 AM 63.1 °F - 45.5 °F 53% 30.02 in 10.0 mi SSE 13.8 mph 21.9 mph N/A   Overcast
12:55 AM 63.0 °F - 46.0 °F 54% 30.00 in 10.0 mi South 10.4 mph 17.3 mph N/A   Overcast
1:15 AM 63.5 °F - 45.9 °F 53% 30.00 in 10.0 mi SSE 18.4 mph 24.2 mph N/A   Overcast
1:35 AM 63.7 °F - 45.7 °F 52% 29.99 in 10.0 mi SSE 13.8 mph 23.0 mph N/A   Overcast
1:55 AM 64.2 °F - 46.6 °F 53% 29.98 in 10.0 mi SSE 16.1 mph 21.9 mph N/A   Overcast
2:35 AM 56.3 °F - 48.0 °F 74% 30.04 in 5.0 mi West 12.7 mph 20.7 mph N/A Rain Rain
2:55 AM 54.3 °F - 45.9 °F 73% 30.05 in 10.0 mi WNW 8.1 mph 18.4 mph N/A Rain Light Rain
3:15 AM 52.3 °F - 45.3 °F 77% 30.07 in 10.0 mi NW 5.8 mph - N/A   Drizzle
3:35 AM 51.6 °F - 44.6 °F 77% 30.09 in 7.0 mi West 6.9 mph - N/A Rain Rain
3:55 AM 50.9 °F - 44.1 °F 77% 30.10 in 5.0 mi NW 8.1 mph - N/A Rain Rain
4:15 AM 50.2 °F - 43.7 °F 78% 30.10 in 7.0 mi NW 4.6 mph - N/A Rain Light Rain
4:55 AM 49.1 °F - 43.2 °F 80% 30.13 in 7.0 mi Calm Calm - N/A Rain Rain
5:15 AM 48.7 °F - 42.8 °F 80% 30.13 in 7.0 mi Calm Calm - N/A Rain Rain
5:35 AM 48.4 °F - 42.8 °F 81% 30.13 in 7.0 mi WSW 6.9 mph - N/A Rain Rain
5:55 AM 47.8 °F - 40.6 °F 76% 30.15 in 7.0 mi WSW 9.2 mph - N/A Rain Rain
6:15 AM 46.6 °F - 39.2 °F 75% 30.16 in 7.0 mi WSW 8.1 mph - N/A Rain Rain
6:55 AM 45.1 °F - 38.3 °F 77% 30.17 in 10.0 mi Calm Calm - N/A Rain Light Rain
7:15 AM 44.6 °F - 38.3 °F 79% 30.19 in 10.0 mi Calm Calm - N/A Rain Light Rain
7:35 AM 43.9 °F 38.8 °F 36.0 °F 74% 30.21 in 7.0 mi West 9.2 mph 18.4 mph N/A Rain Rain
7:55 AM 42.4 °F 36.1 °F 35.6 °F 77% 30.22 in 3.0 mi WSW 11.5 mph 17.3 mph N/A Rain Light Rain
8:15 AM 41.4 °F 34.7 °F 34.3 °F 76% 30.22 in 4.0 mi WSW 11.5 mph 17.3 mph N/A Rain Rain
8:35 AM 41.0 °F 34.7 °F 33.8 °F 76% 30.22 in 7.0 mi WSW 10.4 mph - N/A Rain Light Rain
8:55 AM 40.3 °F 35.5 °F 33.8 °F 78% 30.21 in 3.0 mi WSW 6.9 mph - N/A Rain Rain
9:15 AM 40.3 °F 34.4 °F 33.8 °F 78% 30.24 in 7.0 mi WSW 9.2 mph - N/A Rain Light Rain
9:35 AM 40.5 °F 37.3 °F 34.7 °F 80% 30.25 in 7.0 mi WSW 4.6 mph - N/A Rain Light Rain
9:55 AM 41.0 °F 36.4 °F 34.0 °F 76% 30.25 in 10.0 mi WSW 6.9 mph - N/A   Overcast
10:15 AM 40.5 °F 36.5 °F 33.1 °F 75% 30.25 in 7.0 mi WSW 5.8 mph - N/A Rain Light Rain
10:35 AM 40.6 °F 34.8 °F 32.7 °F 73% 30.26 in 10.0 mi West 9.2 mph - N/A   Overcast
10:55 AM 40.3 °F 34.9 °F 32.2 °F 73% 30.25 in 10.0 mi WSW 8.1 mph - N/A   Overcast
11:15 AM 40.6 °F 34.3 °F 30.6 °F 67% 30.25 in 10.0 mi West 10.4 mph 19.6 mph N/A   Overcast
11:35 AM 41.0 °F 35.8 °F 29.5 °F 64% 30.25 in 10.0 mi WSW 8.1 mph 16.1 mph N/A   Mostly Cloudy
11:55 AM 42.1 °F 34.9 °F 29.7 °F 61% 30.25 in 10.0 mi WSW 13.8 mph 17.3 mph N/A   Mostly Cloudy
12:15 PM 43.3 °F 38.1 °F 30.4 °F 60% 30.25 in 10.0 mi West 9.2 mph - N/A   Clear
12:35 PM 41.2 °F 34.5 °F 24.4 °F 51% 30.25 in 10.0 mi West 11.5 mph 23.0 mph N/A   Scattered Clouds
12:55 PM 42.1 °F 37.1 °F 22.6 °F 46% 30.26 in 10.0 mi WSW 8.1 mph 21.9 mph N/A   Scattered Clouds
1:15 PM 42.4 °F 38.8 °F 23.9 °F 48% 30.27 in 10.0 mi WNW 5.8 mph - N/A   Mostly Cloudy
1:55 PM 41.0 °F 36.4 °F 23.0 °F 49% 30.27 in 10.0 mi WNW 6.9 mph - N/A   Mostly Cloudy
2:15 PM 41.0 °F 36.4 °F 23.5 °F 50% 30.28 in 10.0 mi NW 6.9 mph - N/A   Overcast
2:35 PM 40.6 °F 34.8 °F 24.4 °F 53% 30.29 in 10.0 mi NW 9.2 mph - N/A   Overcast
2:55 PM 40.5 °F 37.3 °F 25.2 °F 54% 30.29 in 10.0 mi WNW 4.6 mph - N/A   Overcast
3:15 PM 40.5 °F 35.8 °F 25.2 °F 54% 30.30 in 10.0 mi NW 6.9 mph - N/A   Overcast
3:35 PM 40.1 °F 35.3 °F 24.4 °F 54% 30.31 in 10.0 mi WNW 6.9 mph - N/A   Overcast
3:55 PM 40.1 °F 36.9 °F 24.8 °F 54% 30.32 in 10.0 mi WNW 4.6 mph - N/A   Overcast
4:15 PM 39.7 °F 37.6 °F 24.6 °F 55% 30.33 in 2.5 mi WNW 3.5 mph - N/A   Haze
4:35 PM 39.4 °F 36.1 °F 23.7 °F 54% 30.33 in 10.0 mi NW 4.6 mph - N/A   Overcast
4:55 PM 38.1 °F 34.6 °F 23.7 °F 56% 30.33 in 10.0 mi NW 4.6 mph - N/A   Scattered Clouds
5:15 PM 37.4 °F 32.8 °F 23.5 °F 57% 30.35 in 10.0 mi WNW 5.8 mph - N/A   Clear
5:35 PM 36.9 °F 34.3 °F 22.8 °F 57% 30.36 in 10.0 mi WNW 3.5 mph - N/A   Clear
5:55 PM 36.7 °F 34.1 °F 22.1 °F 56% 30.37 in 10.0 mi WNW 3.5 mph - N/A   Clear
6:15 PM 35.8 °F 33.0 °F 21.7 °F 57% 30.37 in 10.0 mi WNW 3.5 mph - N/A   Clear
6:35 PM 35.6 °F 32.8 °F 21.6 °F 57% 30.38 in 10.0 mi NW 3.5 mph - N/A   Clear
6:55 PM 35.6 °F 32.8 °F 21.2 °F 56% 30.39 in 10.0 mi West 3.5 mph - N/A   Clear
7:15 PM 35.2 °F 31.2 °F 21.0 °F 56% 30.40 in 10.0 mi WNW 4.6 mph - N/A   Clear
7:35 PM 35.1 °F 30.1 °F 21.7 °F 58% 30.40 in 10.0 mi WNW 5.8 mph - N/A   Clear
7:55 PM 35.1 °F 31.0 °F 21.2 °F 57% 30.41 in 10.0 mi West 4.6 mph - N/A   Clear
8:15 PM 34.7 °F 28.8 °F 21.7 °F 59% 30.42 in 10.0 mi West 6.9 mph - N/A   Clear
8:35 PM 34.2 °F 28.2 °F 22.3 °F 62% 30.42 in 10.0 mi WNW 6.9 mph - N/A   Clear
8:55 PM 34.2 °F - 21.9 °F 61% 30.42 in 10.0 mi Calm Calm - N/A   Clear
9:15 PM 31.8 °F - 22.3 °F 68% 30.43 in 10.0 mi Calm Calm - N/A   Clear
9:35 PM 32.9 °F 28.5 °F 22.1 °F 65% 30.43 in 10.0 mi NW 4.6 mph - N/A   Clear
9:55 PM 32.9 °F 28.5 °F 22.1 °F 65% 30.43 in 10.0 mi NW 4.6 mph - N/A   Clear
10:15 PM 33.4 °F 28.1 °F 21.9 °F 63% 30.44 in 10.0 mi WNW 5.8 mph - N/A   Clear
10:35 PM 32.9 °F - 21.9 °F 64% 30.45 in 10.0 mi Calm Calm - N/A   Clear
10:55 PM 29.1 °F - 21.6 °F 73% 30.46 in 10.0 mi Calm Calm - N/A   Clear
11:15 PM 30.6 °F - 23.0 °F 74% 30.46 in 10.0 mi Calm Calm - N/A   Clear
11:35 PM 30.9 °F - 22.6 °F 71% 30.47 in 10.0 mi Calm Calm - N/A   Clear
11:55 PM 29.1 °F - 22.8 °F 77% 30.47 in 10.0 mi Calm Calm - N/A   Clear